Time;durP1;ratioP1;P1;durP2;ratioP2;P2;SDS_P1;SDS_P2;PMS_P1;PMS_P2;Temp;Humidity;BMP_temperature;BMP_pressure;BME280_temperature;BME280_humidity;BME280_pressure;Samples;Min_cycle;Max_cycle;Signal;HPM_P1;HPM_P2
2022/12/15 00:39:33;;;;;;;58.27;33.33;;;-4.50;99.90;;;;;;5017599;28;20432;-70
2022/12/15 00:42:00;;;;;;;65.87;35.00;;;-4.50;99.90;;;;;;5016706;28;21016;-70
2022/12/15 00:44:28;;;;;;;68.47;35.67;;;-4.60;99.90;;;;;;5017098;28;20548;-70
2022/12/15 00:46:54;;;;;;;64.47;36.20;;;-4.60;99.90;;;;;;5018676;28;20480;-70
2022/12/15 01:22:22;;;;;;;65.13;34.80;;;-4.70;99.90;;;;;;5015385;28;20460;-70
2022/12/15 01:24:48;;;;;;;60.57;34.73;;;-4.70;99.90;;;;;;5014858;28;20543;-70
2022/12/15 01:27:15;;;;;;;58.27;34.20;;;-4.70;99.90;;;;;;5015286;28;20555;-69
2022/12/15 01:29:42;;;;;;;57.77;34.60;;;-4.70;99.90;;;;;;5014996;28;20556;-70
2022/12/15 01:32:10;;;;;;;68.67;37.97;;;-4.70;99.90;;;;;;5018697;28;20951;-70
2022/12/15 01:34:37;;;;;;;60.00;35.20;;;-4.70;99.90;;;;;;5019014;28;20485;-69
2022/12/15 01:37:04;;;;;;;61.23;36.33;;;-4.70;99.90;;;;;;5019139;28;20840;-70
2022/12/15 01:40:43;;;;;;;70.73;35.00;;;-4.70;99.90;;;;;;5018951;28;20457;-70
2022/12/15 01:42:17;;;;;;;64.13;33.73;;;-4.70;99.90;;;;;;5018677;28;20471;-68
2022/12/15 01:44:46;;;;;;;66.80;35.60;;;-4.70;99.90;;;;;;5023600;28;20467;-70
2022/12/15 01:47:15;;;;;;;60.57;35.00;;;-4.70;99.90;;;;;;5019581;28;20903;-70
2022/12/15 01:49:46;;;;;;;63.50;33.60;;;-4.70;99.90;;;;;;5018189;28;20551;-69
2022/12/15 01:52:16;;;;;;;66.47;35.33;;;-4.70;99.90;;;;;;5018263;28;20456;-70
2022/12/15 01:54:49;;;;;;;61.60;35.33;;;-4.70;99.90;;;;;;5017559;28;20908;-70
2022/12/15 01:57:22;;;;;;;59.47;32.40;;;-4.80;99.90;;;;;;5017690;28;20839;-70
2022/12/15 01:59:52;;;;;;;64.00;36.83;;;-4.80;99.90;;;;;;5017588;28;20536;-70
2022/12/15 02:02:24;;;;;;;74.10;36.77;;;-4.70;99.90;;;;;;5017310;28;20531;-69
2022/12/15 02:04:52;;;;;;;58.53;33.83;;;-4.70;99.90;;;;;;5017657;28;20544;-70
2022/12/15 02:07:20;;;;;;;56.87;32.60;;;-4.70;99.90;;;;;;5016897;28;20543;-69
2022/12/15 02:09:48;;;;;;;75.63;35.80;;;-4.80;99.90;;;;;;5016715;28;20460;-70
2022/12/15 02:12:27;;;;;;;63.37;32.70;;;-4.80;99.90;;;;;;5016925;28;20467;-70
2022/12/15 02:15:11;;;;;;;59.43;31.13;;;-4.80;99.90;;;;;;5017133;28;20479;-68
2022/12/15 02:17:50;;;;;;;64.90;36.40;;;-4.80;99.90;;;;;;5016663;28;20440;-70
2022/12/15 02:20:46;;;;;;;75.10;34.13;;;-4.80;99.90;;;;;;5017061;28;20552;-70
2022/12/15 02:23:48;;;;;;;51.77;30.23;;;-4.80;99.90;;;;;;4983031;28;20536;-70
2022/12/15 02:26:45;;;;;;;54.80;32.67;;;-4.80;99.90;;;;;;5016922;28;20519;-70
2022/12/15 02:29:30;;;;;;;55.47;32.20;;;-4.90;99.90;;;;;;5016895;28;20859;-71
2022/12/15 02:32:00;;;;;;;62.40;34.67;;;-4.90;99.90;;;;;;5017212;28;20532;-70
2022/12/15 02:34:35;;;;;;;54.40;32.17;;;-4.90;99.90;;;;;;5017600;28;20559;-69
2022/12/15 02:37:08;;;;;;;61.70;32.90;;;-4.90;99.90;;;;;;5017021;28;20779;-70
2022/12/15 02:39:35;;;;;;;54.93;31.57;;;-4.90;99.90;;;;;;5016426;28;20540;-70
2022/12/15 02:42:02;;;;;;;55.80;32.47;;;-5.00;99.90;;;;;;5015897;28;20464;-70
2022/12/15 02:44:33;;;;;;;51.23;32.67;;;-5.00;99.90;;;;;;5016199;28;20460;-69
2022/12/15 02:47:17;;;;;;;55.53;31.97;;;-5.00;99.90;;;;;;4978421;28;1114419;-71
2022/12/15 02:49:57;;;;;;;57.10;32.17;;;-5.00;99.90;;;;;;5017402;28;20197;-69
2022/12/15 02:52:36;;;;;;;57.60;32.00;;;-5.00;99.90;;;;;;5017423;28;20445;-70
2022/12/15 02:55:15;;;;;;;56.73;31.83;;;-5.00;99.90;;;;;;5017504;28;20564;-70
2022/12/15 02:57:53;;;;;;;59.70;32.60;;;-5.00;99.90;;;;;;5017215;28;20535;-70
2022/12/15 03:00:20;;;;;;;58.67;32.17;;;-5.00;99.90;;;;;;5017495;28;20451;-70
2022/12/15 03:02:51;;;;;;;59.47;33.80;;;-5.00;99.90;;;;;;5017064;28;20943;-70
2022/12/15 03:05:19;;;;;;;53.77;30.20;;;-4.90;99.90;;;;;;5017956;28;20524;-70
2022/12/15 03:07:49;;;;;;;47.67;30.23;;;-4.80;99.90;;;;;;5016980;28;20892;-70
2022/12/15 03:10:15;;;;;;;53.57;28.40;;;-4.90;99.90;;;;;;5017219;28;20543;-70
2022/12/15 03:12:42;;;;;;;49.40;29.47;;;-4.90;99.90;;;;;;5017391;28;20548;-70
2022/12/15 03:15:10;;;;;;;51.77;30.17;;;-4.90;99.90;;;;;;5016887;28;20487;-70
2022/12/15 03:17:37;;;;;;;51.97;28.90;;;-4.80;99.90;;;;;;5016955;28;20543;-69
2022/12/15 03:20:07;;;;;;;51.87;28.87;;;-4.90;99.90;;;;;;5017003;28;20470;-69
2022/12/15 03:22:34;;;;;;;51.93;28.87;;;-4.90;99.90;;;;;;5016979;28;20465;-70
2022/12/15 03:25:00;;;;;;;49.60;27.43;;;-4.90;99.90;;;;;;5017005;28;20483;-70
2022/12/15 03:27:27;;;;;;;56.90;30.90;;;-4.90;99.90;;;;;;5017448;28;20457;-70
2022/12/15 03:29:54;;;;;;;49.40;27.87;;;-5.00;99.90;;;;;;5016884;28;20591;-70
2022/12/15 03:32:21;;;;;;;50.83;28.80;;;-5.00;99.90;;;;;;5016962;28;20560;-70
2022/12/15 03:34:48;;;;;;;52.80;30.47;;;-5.00;99.90;;;;;;5016763;28;20787;-70
2022/12/15 03:37:16;;;;;;;55.67;29.07;;;-5.00;99.90;;;;;;5016939;28;20548;-70
2022/12/15 03:39:43;;;;;;;61.63;32.07;;;-5.10;99.90;;;;;;5016713;28;20567;-71
2022/12/15 03:42:10;;;;;;;52.70;29.17;;;-5.10;99.90;;;;;;5016439;28;20965;-70
2022/12/15 03:44:37;;;;;;;50.23;29.60;;;-5.10;99.90;;;;;;5016794;28;20461;-70
2022/12/15 03:47:04;;;;;;;48.47;27.70;;;-5.10;99.90;;;;;;5016210;28;20484;-69
2022/12/15 03:49:31;;;;;;;53.77;32.13;;;-5.10;99.90;;;;;;5016647;28;20859;-70
2022/12/15 03:51:58;;;;;;;55.67;29.03;;;-5.00;99.90;;;;;;5016179;28;20547;-70
2022/12/15 03:54:26;;;;;;;63.40;31.77;;;-5.10;99.90;;;;;;5015739;28;20461;-70
2022/12/15 03:56:53;;;;;;;58.77;31.13;;;-5.00;99.90;;;;;;5016420;28;20587;-69
2022/12/15 03:59:20;;;;;;;56.60;31.63;;;-5.00;99.90;;;;;;5016297;28;20461;-70
2022/12/15 04:01:48;;;;;;;63.47;32.63;;;-5.00;99.90;;;;;;5016216;28;20467;-70
2022/12/15 04:04:15;;;;;;;57.67;30.67;;;-5.00;99.90;;;;;;5016365;28;20460;-70
2022/12/15 04:06:42;;;;;;;65.67;31.90;;;-5.00;99.90;;;;;;5016394;28;20864;-70
2022/12/15 04:09:08;;;;;;;54.27;30.30;;;-4.90;99.90;;;;;;5016322;28;20456;-69
2022/12/15 04:11:37;;;;;;;60.30;29.70;;;-5.00;99.90;;;;;;5016289;28;20457;-71
2022/12/15 04:14:03;;;;;;;55.73;31.03;;;-5.00;99.90;;;;;;5016044;28;20544;-70
2022/12/15 04:16:30;;;;;;;57.70;30.00;;;-5.00;99.90;;;;;;5015721;28;20564;-70
2022/12/15 04:21:38;;;;;;;61.37;33.07;;;-5.10;99.90;;;;;;4993871;28;20441;-70
2022/12/15 05:32:38;;;;;;;55.83;27.17;;;-5.60;99.90;;;;;;5014777;28;20767;-69
2022/12/15 05:35:05;;;;;;;52.20;27.30;;;-5.60;99.90;;;;;;5015101;28;20456;-69
2022/12/15 05:37:32;;;;;;;49.37;26.70;;;-5.70;99.90;;;;;;5015083;28;20542;-69
2022/12/15 05:39:59;;;;;;;49.77;28.27;;;-5.70;99.90;;;;;;5015965;28;20552;-69
2022/12/15 05:42:25;;;;;;;52.63;26.80;;;-5.80;99.90;;;;;;5015064;28;20461;-69
2022/12/15 05:44:52;;;;;;;43.20;25.77;;;-5.80;99.90;;;;;;5014672;28;20560;-69
2022/12/15 05:47:19;;;;;;;50.93;26.67;;;-5.80;99.90;;;;;;5014815;28;20567;-70
2022/12/15 05:49:48;;;;;;;52.63;27.60;;;-5.80;99.90;;;;;;5015098;28;20552;-70
2022/12/15 05:52:14;;;;;;;49.67;25.80;;;-5.90;99.90;;;;;;5014871;28;20472;-70
2022/12/15 05:54:41;;;;;;;53.87;27.37;;;-6.00;99.90;;;;;;5014556;28;20548;-71
2022/12/15 05:57:08;;;;;;;48.30;28.93;;;-6.00;99.90;;;;;;5014952;28;20491;-70
2022/12/15 05:59:35;;;;;;;50.00;27.10;;;-6.00;99.90;;;;;;5014917;28;20547;-70
2022/12/15 06:02:02;;;;;;;45.87;26.47;;;-6.00;99.90;;;;;;5014632;28;21025;-70
2022/12/15 06:04:29;;;;;;;43.23;26.97;;;-6.10;99.90;;;;;;5014752;28;20548;-70
2022/12/15 06:06:57;;;;;;;53.00;28.77;;;-6.10;99.90;;;;;;5014832;28;20464;-69
2022/12/15 06:09:24;;;;;;;53.90;28.40;;;-6.10;99.90;;;;;;5015132;28;20556;-70
2022/12/15 06:11:50;;;;;;;51.70;28.83;;;-6.10;99.90;;;;;;5015839;28;21024;-70
2022/12/15 06:14:17;;;;;;;59.73;32.20;;;-6.10;99.90;;;;;;5016930;28;20933;-69
2022/12/15 06:16:44;;;;;;;57.70;30.20;;;-6.30;99.90;;;;;;5016657;28;20968;-69
2022/12/15 06:19:11;;;;;;;60.73;32.47;;;-6.30;99.90;;;;;;5018020;28;20492;-70
2022/12/15 06:21:38;;;;;;;55.20;28.27;;;-6.40;99.90;;;;;;5018023;28;20452;-71
2022/12/15 06:24:07;;;;;;;56.40;28.13;;;-6.40;99.90;;;;;;5017879;28;20472;-70
2022/12/15 06:26:36;;;;;;;54.60;28.10;;;-6.50;99.90;;;;;;5018127;28;20547;-70
2022/12/15 06:29:06;;;;;;;51.43;27.70;;;-6.50;99.90;;;;;;5018188;28;20467;-70
2022/12/15 06:31:33;;;;;;;48.57;26.70;;;-6.50;99.90;;;;;;5017735;28;20464;-69
2022/12/15 06:34:03;;;;;;;51.23;26.77;;;-6.60;99.90;;;;;;5017913;28;20536;-70
2022/12/15 06:36:30;;;;;;;58.77;29.00;;;-6.60;99.90;;;;;;5018379;28;20871;-70
2022/12/15 06:38:59;;;;;;;47.73;27.47;;;-6.60;99.90;;;;;;5017902;28;20548;-70
2022/12/15 06:41:29;;;;;;;48.20;25.80;;;-6.70;99.90;;;;;;5017772;28;20456;-70
2022/12/15 06:43:56;;;;;;;50.77;27.17;;;-6.70;99.90;;;;;;5017527;28;20461;-71
2022/12/15 06:46:23;;;;;;;67.50;26.77;;;-6.70;99.90;;;;;;5017837;28;21044;-69
2022/12/15 06:48:50;;;;;;;43.87;24.60;;;-6.80;99.90;;;;;;5017821;28;20547;-69
2022/12/15 06:51:17;;;;;;;47.20;25.70;;;-6.80;99.90;;;;;;5017768;28;20547;-71
2022/12/15 06:53:47;;;;;;;55.13;26.20;;;-6.80;99.90;;;;;;5017640;28;20471;-69
2022/12/15 06:56:18;;;;;;;50.80;27.37;;;-6.80;99.90;;;;;;5017349;28;20481;-70
2022/12/15 06:58:48;;;;;;;47.50;26.27;;;-6.70;99.90;;;;;;5017464;28;20798;-71
2022/12/15 07:01:15;;;;;;;43.43;25.33;;;-6.70;99.90;;;;;;5018151;28;20758;-70
2022/12/15 07:03:45;;;;;;;45.67;24.70;;;-6.70;99.90;;;;;;5017564;28;20845;-70
2022/12/15 07:06:16;;;;;;;46.60;25.87;;;-6.70;99.90;;;;;;5017512;28;20507;-69
2022/12/15 07:08:46;;;;;;;51.00;25.33;;;-6.70;99.90;;;;;;5018409;28;20524;-69
2022/12/15 07:11:13;;;;;;;60.73;25.43;;;-6.60;99.90;;;;;;5018467;28;20942;-69
2022/12/15 07:13:40;;;;;;;48.47;25.37;;;-6.60;99.90;;;;;;5018099;28;20548;-70
2022/12/15 07:16:11;;;;;;;53.17;25.63;;;-6.60;99.90;;;;;;5018803;28;20491;-71
2022/12/15 07:18:38;;;;;;;44.73;26.60;;;-6.60;99.90;;;;;;5017097;28;20457;-70
2022/12/15 07:21:07;;;;;;;53.10;27.80;;;-6.60;99.90;;;;;;5017145;28;20492;-68
2022/12/15 07:23:35;;;;;;;44.33;24.80;;;-6.70;99.90;;;;;;5016964;28;20994;-70
2022/12/15 07:26:03;;;;;;;47.63;27.40;;;-6.80;99.90;;;;;;5017162;28;20468;-70
2022/12/15 07:28:30;;;;;;;49.10;26.10;;;-6.70;99.90;;;;;;5015639;28;20823;-70
2022/12/15 07:31:02;;;;;;;48.03;25.73;;;-6.70;99.90;;;;;;5017024;28;20538;-70
2022/12/15 07:33:31;;;;;;;47.30;27.07;;;-6.60;99.90;;;;;;5016906;28;20828;-71
2022/12/15 07:35:59;;;;;;;44.93;25.63;;;-6.70;99.90;;;;;;5016582;28;20507;-69
2022/12/15 07:38:26;;;;;;;47.30;26.70;;;-6.70;99.90;;;;;;5016496;28;20485;-70
2022/12/15 07:40:53;;;;;;;49.50;25.77;;;-6.70;99.90;;;;;;5016757;28;20493;-70
2022/12/15 07:43:21;;;;;;;45.10;26.60;;;-6.70;99.90;;;;;;5016283;28;20492;-70
2022/12/15 07:45:52;;;;;;;47.60;25.00;;;-6.60;99.90;;;;;;5016061;28;20496;-69
2022/12/15 07:48:19;;;;;;;49.83;28.50;;;-6.70;99.90;;;;;;5015927;28;20874;-70
2022/12/15 07:50:47;;;;;;;46.57;25.17;;;-6.70;99.90;;;;;;5015858;28;20461;-69
2022/12/15 07:53:14;;;;;;;45.17;24.20;;;-6.80;99.90;;;;;;5015970;28;20467;-70
2022/12/15 07:55:41;;;;;;;44.80;24.00;;;-6.70;99.90;;;;;;5015915;28;20460;-70
2022/12/15 07:58:07;;;;;;;51.80;26.10;;;-6.70;99.90;;;;;;5015952;28;20567;-70
2022/12/15 08:00:34;;;;;;;46.27;26.10;;;-6.60;99.90;;;;;;5016321;28;20467;-70
2022/12/15 08:03:02;;;;;;;41.20;25.53;;;-6.60;99.90;;;;;;5016106;28;20518;-70
2022/12/15 08:05:29;;;;;;;48.80;22.13;;;-6.60;99.90;;;;;;5016350;28;20453;-71
2022/12/15 08:07:58;;;;;;;43.47;25.30;;;-6.60;99.90;;;;;;5016125;28;20592;-70
2022/12/15 08:10:25;;;;;;;43.97;23.77;;;-6.60;99.90;;;;;;5016129;28;20464;-69
2022/12/15 08:12:54;;;;;;;46.13;24.77;;;-6.60;99.90;;;;;;5015560;28;20460;-69
2022/12/15 08:15:21;;;;;;;50.00;23.90;;;-6.50;99.90;;;;;;5015762;28;20559;-70
2022/12/15 08:17:48;;;;;;;45.37;26.80;;;-6.50;99.90;;;;;;5015780;28;20481;-69
2022/12/15 08:20:15;;;;;;;41.60;24.90;;;-6.40;99.90;;;;;;5016289;28;20503;-70
2022/12/15 08:22:41;;;;;;;48.43;24.50;;;-6.40;99.90;;;;;;5016088;28;20556;-70
2022/12/15 08:25:10;;;;;;;51.63;25.47;;;-6.40;99.90;;;;;;5016129;28;20652;-70
2022/12/15 08:27:37;;;;;;;48.23;23.70;;;-6.40;99.90;;;;;;5015969;28;20457;-70
2022/12/15 08:30:04;;;;;;;40.50;23.60;;;-6.40;99.90;;;;;;5016204;28;20549;-70
2022/12/15 08:32:31;;;;;;;36.30;22.60;;;-6.40;99.90;;;;;;5015143;28;20988;-70
2022/12/15 08:34:58;;;;;;;42.67;25.80;;;-6.40;99.90;;;;;;5016504;28;20457;-70
2022/12/15 08:37:25;;;;;;;49.90;26.27;;;-6.40;99.90;;;;;;5016570;28;20572;-71
2022/12/15 08:39:52;;;;;;;43.77;24.60;;;-6.40;99.90;;;;;;5016156;28;20542;-71
2022/12/15 08:42:20;;;;;;;47.20;25.03;;;-6.40;99.90;;;;;;5015744;28;20471;-70
2022/12/15 08:44:49;;;;;;;44.43;24.80;;;-6.40;99.90;;;;;;5015884;28;20565;-70
2022/12/15 08:47:15;;;;;;;35.43;22.93;;;-6.30;99.90;;;;;;5015754;28;20480;-70
2022/12/15 08:49:42;;;;;;;43.80;22.93;;;-6.30;99.90;;;;;;5015547;28;21000;-70
2022/12/15 08:52:09;;;;;;;44.53;25.70;;;-6.20;99.90;;;;;;5016433;28;20560;-71
2022/12/15 08:54:36;;;;;;;40.00;21.13;;;-6.20;99.90;;;;;;5015847;28;20519;-70
2022/12/15 08:57:03;;;;;;;38.33;24.60;;;-6.30;99.90;;;;;;5016242;28;20560;-69
2022/12/15 08:59:31;;;;;;;47.60;25.30;;;-6.20;99.90;;;;;;5016674;28;20492;-70
2022/12/15 09:01:59;;;;;;;46.90;24.33;;;-6.20;99.90;;;;;;5016684;28;20493;-70
2022/12/15 09:04:26;;;;;;;36.70;21.57;;;-6.10;99.90;;;;;;5016944;28;20499;-70
2022/12/15 09:06:53;;;;;;;41.43;22.20;;;-6.00;99.90;;;;;;5017326;28;20452;-70
2022/12/15 09:09:20;;;;;;;41.37;24.37;;;-6.00;99.90;;;;;;5016235;28;20471;-71
2022/12/15 09:11:47;;;;;;;44.80;27.43;;;-6.00;99.90;;;;;;5016469;28;20548;-69
2022/12/15 09:14:14;;;;;;;46.77;25.30;;;-5.90;99.90;;;;;;5018101;28;20467;-70
2022/12/15 09:16:42;;;;;;;46.73;25.63;;;-5.80;99.90;;;;;;5018072;28;20476;-70
2022/12/15 09:19:10;;;;;;;40.40;24.83;;;-5.70;99.90;;;;;;5018789;28;20867;-69
2022/12/15 09:21:38;;;;;;;42.83;24.40;;;-5.70;99.90;;;;;;5019320;28;20551;-70
2022/12/15 09:24:06;;;;;;;48.80;24.03;;;-5.60;99.90;;;;;;5017745;28;20543;-71
2022/12/15 09:26:34;;;;;;;46.57;27.43;;;-5.60;99.90;;;;;;5015944;28;21011;-70
2022/12/15 09:29:01;;;;;;;47.50;23.80;;;-5.60;99.90;;;;;;5015097;28;20465;-70
2022/12/15 09:31:31;;;;;;;39.70;22.57;;;-5.60;99.90;;;;;;5014893;28;20893;-70
2022/12/15 09:34:00;;;;;;;38.80;23.43;;;-5.60;99.90;;;;;;5014856;28;20488;-70
2022/12/15 09:36:29;;;;;;;43.23;23.87;;;-5.50;99.90;;;;;;5015104;28;20547;-70
2022/12/15 09:38:55;;;;;;;42.97;24.40;;;-5.40;99.90;;;;;;5015262;28;20456;-71
2022/12/15 09:41:26;;;;;;;37.00;23.00;;;-5.40;99.90;;;;;;5014755;28;20461;-72
2022/12/15 09:43:57;;;;;;;47.43;26.07;;;-5.20;99.90;;;;;;5015379;28;20457;-70
2022/12/15 09:46:38;;;;;;;43.67;25.00;;;-5.20;99.90;;;;;;5015286;28;20485;-70
2022/12/15 09:49:14;;;;;;;46.77;25.07;;;-5.10;99.90;;;;;;5016343;28;20462;-71
2022/12/15 09:51:46;;;;;;;41.17;26.10;;;-5.10;99.90;;;;;;5015985;28;20441;-70
2022/12/15 09:54:13;;;;;;;44.37;25.13;;;-5.10;99.90;;;;;;5018459;28;20532;-71
2022/12/15 09:56:44;;;;;;;42.73;24.67;;;-5.10;99.90;;;;;;5018446;28;20484;-70
2022/12/15 09:59:26;;;;;;;45.40;24.00;;;-5.10;99.90;;;;;;5018638;28;20570;-70
2022/12/15 10:02:01;;;;;;;40.23;25.17;;;-5.00;99.90;;;;;;5018100;28;20893;-69
2022/12/15 10:04:38;;;;;;;41.70;23.93;;;-4.90;99.90;;;;;;5018587;28;20444;-70
2022/12/15 10:07:13;;;;;;;45.13;25.03;;;-4.80;99.90;;;;;;5018664;28;20441;-69
2022/12/15 10:09:40;;;;;;;39.23;23.83;;;-4.70;99.90;;;;;;5018267;28;20451;-69
2022/12/15 10:12:11;;;;;;;46.90;25.10;;;-4.70;99.90;;;;;;5018270;28;20543;-69
2022/12/15 10:14:43;;;;;;;44.53;23.17;;;-4.50;99.90;;;;;;5017824;28;20945;-70
2022/12/15 10:17:20;;;;;;;43.57;24.87;;;-4.40;99.90;;;;;;5017818;28;20571;-69
2022/12/15 10:19:54;;;;;;;36.00;22.80;;;-4.30;99.90;;;;;;5017534;28;20445;-71
2022/12/15 10:22:24;;;;;;;42.30;24.90;;;-4.20;99.90;;;;;;5017721;28;20441;-70
2022/12/15 10:24:51;;;;;;;41.10;25.57;;;-4.00;99.90;;;;;;5017902;28;20445;-69
2022/12/15 10:27:34;;;;;;;45.53;24.97;;;-3.90;99.90;;;;;;5017446;28;20535;-70
2022/12/15 10:30:04;;;;;;;43.50;25.53;;;-3.80;99.90;;;;;;5018039;28;20445;-71
2022/12/15 10:32:42;;;;;;;42.37;24.37;;;-3.70;99.90;;;;;;5017613;28;20484;-71
2022/12/15 10:35:15;;;;;;;40.40;25.00;;;-3.70;99.90;;;;;;5017595;28;20527;-71
2022/12/15 11:45:14;;;;;;;38.77;24.03;;;-2.10;99.90;;;;;;5053724;28;20457;-72
2022/12/15 11:47:47;;;;;;;35.73;21.97;;;-2.00;99.90;;;;;;5056106;28;20439;-73
2022/12/15 11:50:26;;;;;;;36.30;23.77;;;-1.90;99.90;;;;;;5055846;28;20470;-71
2022/12/15 11:53:17;;;;;;;36.47;22.37;;;-1.90;99.90;;;;;;5055330;28;20443;-71
2022/12/15 11:55:54;;;;;;;40.53;22.30;;;-1.90;99.90;;;;;;5055388;28;20541;-71
2022/12/15 11:58:48;;;;;;;39.63;23.90;;;-1.80;99.90;;;;;;5055355;28;20908;-70
2022/12/15 12:01:42;;;;;;;41.40;25.03;;;-1.80;99.90;;;;;;5054979;28;20439;-70
2022/12/15 12:04:20;;;;;;;46.27;24.03;;;-1.80;99.90;;;;;;5047671;28;20444;-70
2022/12/15 12:06:59;;;;;;;38.60;23.00;;;-1.70;99.90;;;;;;5055267;28;20884;-70
2022/12/15 12:09:31;;;;;;;37.37;22.90;;;-1.50;99.90;;;;;;5055035;28;20462;-70
2022/12/15 12:12:07;;;;;;;39.70;23.80;;;-1.40;99.90;;;;;;5054854;28;20466;-70
2022/12/15 12:14:44;;;;;;;39.37;23.03;;;-1.20;99.90;;;;;;5036566;28;20461;-72
2022/12/15 12:17:20;;;;;;;43.33;24.97;;;-1.10;99.90;;;;;;5035052;28;20952;-70
2022/12/15 12:19:51;;;;;;;35.10;23.17;;;-1.00;99.90;;;;;;5035429;28;20444;-70
2022/12/15 12:22:24;;;;;;;35.40;22.63;;;-0.80;99.90;;;;;;5035752;28;20736;-70
2022/12/15 12:24:57;;;;;;;36.37;22.73;;;-0.60;99.90;;;;;;5035707;28;20445;-70
2022/12/15 12:27:35;;;;;;;36.43;23.30;;;-0.10;99.90;;;;;;5036203;28;20452;-70
2022/12/15 12:30:10;;;;;;;35.70;22.70;;;0.70;99.90;;;;;;5035471;28;20440;-70
2022/12/15 12:32:47;;;;;;;31.40;21.03;;;1.80;99.90;;;;;;5035904;28;20443;-70
2022/12/15 12:35:18;;;;;;;32.93;19.60;;;3.10;99.90;;;;;;5035832;28;20888;-70
2022/12/15 12:37:51;;;;;;;32.43;20.63;;;4.30;99.90;;;;;;5035360;28;20472;-70
2022/12/15 12:40:24;;;;;;;31.73;17.60;;;5.40;99.90;;;;;;5035411;28;20450;-69
2022/12/15 12:42:55;;;;;;;26.73;18.13;;;6.30;99.90;;;;;;5035109;28;20860;-69
2022/12/15 12:45:26;;;;;;;30.87;18.67;;;7.00;99.90;;;;;;5035035;28;20494;-71
2022/12/15 12:47:57;;;;;;;30.63;18.87;;;7.20;95.80;;;;;;5035892;28;20440;-69
2022/12/15 12:50:27;;;;;;;25.50;18.10;;;7.50;92.30;;;;;;5035926;28;20455;-70
2022/12/15 12:52:57;;;;;;;29.67;18.53;;;7.50;91.00;;;;;;5036157;28;20762;-70
2022/12/15 12:55:36;;;;;;;26.70;17.67;;;7.70;88.20;;;;;;5036519;28;20911;-70
2022/12/15 12:58:02;;;;;;;25.13;16.93;;;7.60;85.20;;;;;;5036197;28;20807;-70
2022/12/15 13:00:31;;;;;;;26.97;18.80;;;7.60;86.50;;;;;;5035782;28;20946;-70
2022/12/15 13:03:19;;;;;;;31.73;18.83;;;7.90;82.20;;;;;;5035626;28;20459;-70
2022/12/15 13:05:49;;;;;;;24.90;17.33;;;7.70;79.80;;;;;;5035627;28;20615;-71
2022/12/15 13:08:49;;;;;;;28.27;19.10;;;7.20;78.30;;;;;;5037154;28;20573;-70
2022/12/15 13:11:55;;;;;;;28.00;19.17;;;6.50;82.80;;;;;;5028961;28;20807;-71
2022/12/15 13:14:30;;;;;;;29.80;18.87;;;6.00;84.20;;;;;;5036353;28;20444;-70
2022/12/15 13:17:02;;;;;;;33.57;19.27;;;5.20;87.60;;;;;;5036988;28;20439;-70
2022/12/15 13:20:09;;;;;;;32.00;19.43;;;4.50;91.50;;;;;;5037171;28;20451;-70
2022/12/15 13:22:38;;;;;;;33.73;22.20;;;4.00;94.70;;;;;;5037024;28;20797;-69
2022/12/15 13:25:33;;;;;;;29.77;20.50;;;3.70;97.70;;;;;;5038251;28;20455;-70
2022/12/15 13:28:02;;;;;;;29.50;20.33;;;3.50;99.60;;;;;;5041862;28;20897;-70
2022/12/15 13:30:29;;;;;;;30.23;21.23;;;2.90;99.90;;;;;;5041922;28;20457;-71
2022/12/15 13:33:14;;;;;;;29.80;20.50;;;2.30;99.90;;;;;;5042700;28;20452;-70
2022/12/15 13:35:42;;;;;;;35.03;21.33;;;1.70;99.90;;;;;;5043667;28;20776;-69
2022/12/15 13:38:17;;;;;;;33.33;21.33;;;1.40;99.90;;;;;;5043596;28;20995;-70
2022/12/15 13:40:52;;;;;;;37.97;21.60;;;1.00;99.90;;;;;;5043365;28;20439;-70
2022/12/15 13:43:40;;;;;;;33.87;21.63;;;0.70;99.90;;;;;;5043856;28;20531;-71
2022/12/15 13:46:16;;;;;;;33.20;21.70;;;0.50;99.90;;;;;;5043983;28;20483;-71
2022/12/15 13:48:45;;;;;;;37.87;21.53;;;0.20;99.90;;;;;;5045213;28;20935;-69
2022/12/15 13:51:44;;;;;;;36.90;22.30;;;0.00;99.90;;;;;;5044520;28;20460;-71
2022/12/15 13:54:16;;;;;;;37.10;21.20;;;-0.10;99.90;;;;;;4990446;28;20483;-70
2022/12/15 13:56:50;;;;;;;33.33;20.60;;;-0.10;99.90;;;;;;5044842;28;20511;-70
2022/12/15 13:59:30;;;;;;;32.37;21.30;;;-0.20;99.90;;;;;;5044628;28;20483;-69
2022/12/15 14:01:57;;;;;;;35.17;21.93;;;-0.20;99.90;;;;;;5043674;28;20845;-70
2022/12/15 14:04:24;;;;;;;32.37;20.37;;;-0.40;99.90;;;;;;5043430;28;20470;-69
2022/12/15 14:06:54;;;;;;;35.43;20.73;;;-0.40;99.90;;;;;;5043694;28;20778;-69
2022/12/15 14:09:28;;;;;;;38.40;21.50;;;-0.40;99.90;;;;;;5044780;28;20432;-69
2022/12/15 14:11:55;;;;;;;35.07;21.57;;;-0.40;99.90;;;;;;5044121;28;20477;-70
2022/12/15 14:14:27;;;;;;;33.27;20.90;;;-0.10;99.90;;;;;;5043411;28;20456;-70
2022/12/15 14:17:00;;;;;;;30.60;20.20;;;0.20;99.90;;;;;;5044098;28;20460;-70
2022/12/15 14:19:38;;;;;;;35.63;21.63;;;0.30;99.90;;;;;;5043297;28;20474;-70
2022/12/15 14:22:21;;;;;;;34.80;22.10;;;0.30;99.90;;;;;;5042540;28;20497;-70
2022/12/15 14:24:49;;;;;;;37.30;22.37;;;0.20;99.90;;;;;;5043297;28;20790;-70
2022/12/15 14:27:22;;;;;;;34.63;22.60;;;0.10;99.90;;;;;;5042789;28;20501;-70
2022/12/15 14:29:49;;;;;;;41.40;24.70;;;0.00;99.90;;;;;;5042796;28;20440;-69
2022/12/15 14:32:16;;;;;;;39.57;22.80;;;-0.10;99.90;;;;;;5043356;28;20802;-69
2022/12/15 14:34:44;;;;;;;38.00;21.70;;;-0.10;99.90;;;;;;5044418;28;20780;-71
2022/12/15 14:37:18;;;;;;;36.57;21.50;;;-0.20;99.90;;;;;;5042351;28;20470;-70
2022/12/15 14:39:48;;;;;;;39.13;24.17;;;-0.30;99.90;;;;;;5043242;28;20429;-70
2022/12/15 14:42:17;;;;;;;40.13;24.03;;;-0.40;99.90;;;;;;5042536;28;20452;-70
2022/12/15 14:44:46;;;;;;;40.70;23.70;;;-0.50;99.90;;;;;;5041928;28;20495;-70
2022/12/15 14:47:21;;;;;;;35.50;22.67;;;-0.60;99.90;;;;;;5042601;28;20456;-71
2022/12/15 14:49:48;;;;;;;37.83;22.70;;;-0.60;99.90;;;;;;5041844;28;20444;-70
2022/12/15 14:52:26;;;;;;;38.97;22.67;;;-0.70;99.90;;;;;;5041720;28;20479;-70
2022/12/15 14:54:55;;;;;;;39.47;23.27;;;-0.70;99.90;;;;;;5042365;28;20441;-70
2022/12/15 14:57:24;;;;;;;46.17;24.70;;;-0.80;99.90;;;;;;5041645;28;20456;-70
2022/12/15 14:59:52;;;;;;;40.33;25.63;;;-0.90;99.90;;;;;;5041986;28;20459;-70
2022/12/15 15:02:23;;;;;;;40.07;25.30;;;-1.00;99.90;;;;;;5041044;28;20493;-69
2022/12/15 15:05:02;;;;;;;42.97;24.80;;;-1.00;99.90;;;;;;5042159;28;20476;-69
2022/12/15 15:07:32;;;;;;;39.97;25.10;;;-1.10;99.90;;;;;;5043013;28;20505;-70
2022/12/15 15:09:59;;;;;;;38.97;25.40;;;-1.10;99.90;;;;;;5042693;28;20456;-71
2022/12/15 15:12:42;;;;;;;38.03;24.23;;;-1.20;99.90;;;;;;5042077;28;20462;-69
2022/12/15 15:15:16;;;;;;;44.73;25.47;;;-1.20;99.90;;;;;;5042185;28;20547;-69
2022/12/15 15:17:47;;;;;;;42.30;26.10;;;-1.30;99.90;;;;;;5041761;28;20463;-69
2022/12/15 15:20:21;;;;;;;50.00;27.00;;;-1.30;99.90;;;;;;5042444;28;20444;-70
2022/12/15 15:23:04;;;;;;;46.17;26.43;;;-1.40;99.90;;;;;;5041717;28;20770;-69
2022/12/15 15:25:37;;;;;;;45.70;26.70;;;-1.50;99.90;;;;;;5041147;28;20448;-70
2022/12/15 15:28:15;;;;;;;43.63;24.83;;;-1.50;99.90;;;;;;5041146;28;20551;-69
2022/12/15 15:30:44;;;;;;;40.10;26.50;;;-1.50;99.90;;;;;;5041633;28;20444;-70
2022/12/15 15:33:12;;;;;;;35.43;23.60;;;-1.60;99.90;;;;;;5040642;28;20921;-70
2022/12/15 15:35:39;;;;;;;48.27;25.17;;;-1.60;99.90;;;;;;5040616;28;20452;-70
2022/12/15 15:38:17;;;;;;;38.77;23.10;;;-1.60;99.90;;;;;;5039999;28;20979;-69
2022/12/15 15:40:49;;;;;;;33.70;21.73;;;-1.60;99.90;;;;;;5040216;28;20528;-69
2022/12/15 15:43:17;;;;;;;36.27;24.30;;;-1.70;99.90;;;;;;5039390;28;20893;-69
2022/12/15 15:45:44;;;;;;;38.70;23.30;;;-1.70;99.90;;;;;;5038132;28;20499;-70
2022/12/15 15:48:15;;;;;;;38.50;23.37;;;-1.70;99.90;;;;;;5038050;28;20463;-70
2022/12/15 15:50:44;;;;;;;38.30;23.50;;;-1.70;99.90;;;;;;5037787;28;20774;-70
2022/12/15 15:53:17;;;;;;;39.37;24.77;;;-1.60;99.90;;;;;;5041835;28;20786;-70
2022/12/15 15:55:44;;;;;;;38.23;23.13;;;-1.60;99.90;;;;;;5056899;28;20856;-71
2022/12/15 15:58:11;;;;;;;40.00;24.50;;;-1.70;99.90;;;;;;5057094;28;20482;-70
2022/12/15 16:00:39;;;;;;;36.07;23.43;;;-1.70;99.90;;;;;;5056658;28;20931;-69
2022/12/15 16:03:06;;;;;;;37.93;22.73;;;-1.70;99.90;;;;;;5055559;28;20470;-69
2022/12/15 16:05:33;;;;;;;34.47;22.63;;;-1.80;99.90;;;;;;5056954;28;20502;-70
2022/12/15 16:08:00;;;;;;;39.37;24.53;;;-1.90;99.90;;;;;;5057010;28;20459;-70
2022/12/15 16:10:28;;;;;;;38.90;24.73;;;-1.80;99.90;;;;;;5057427;28;20466;-70
2022/12/15 16:12:59;;;;;;;38.17;23.27;;;-1.90;99.90;;;;;;5051384;28;20464;-71
2022/12/15 16:15:28;;;;;;;35.53;22.80;;;-1.90;99.90;;;;;;5036250;28;20506;-70
2022/12/15 16:17:55;;;;;;;38.70;22.43;;;-1.90;99.90;;;;;;5036163;28;20571;-70